Time;durP1;ratioP1;P1;durP2;ratioP2;P2;SDS_P1;SDS_P2;PMS_P1;PMS_P2;Temp;Humidity;BMP_temperature;BMP_pressure;BME280_temperature;BME280_humidity;BME280_pressure;Samples;Min_cycle;Max_cycle;Signal;HPM_P1;HPM_P2
2022/08/28 08:29:36;;;;;;;;;;;;;;;23.43;63.82;96819.41;4232308;27;10235;-73
2022/08/28 08:31:39;;;;;;;;;;;;;;;23.72;63.10;96819.63;4201195;28;5723;-72
2022/08/28 08:33:48;;;;;;;;;;;;;;;23.99;62.77;96821.13;4218715;28;5755;-73
2022/08/28 08:35:50;;;;;;;;;;;;;;;24.13;61.96;96822.16;4213118;28;5693;-73
2022/08/28 08:37:53;;;;;;;;;;;;;;;24.19;62.17;96826.41;4210897;28;5706;-72
2022/08/28 08:39:57;;;;;;;;;;;;;;;24.27;61.73;96833.94;4203080;28;6017;-72
2022/08/28 08:42:06;;;;;;;;;;;;;;;24.39;61.66;96837.13;4197163;28;6400;-73
2022/08/28 08:44:22;;;;;;;;;;;;;;;24.50;61.47;96845.19;4199313;28;5112;-72
2022/08/28 08:46:46;;;;;;;;;;;;;;;24.57;61.24;96837.53;4209859;28;5695;-72
2022/08/28 08:48:49;;;;;;;;;;;;;;;24.63;60.64;96837.22;4213614;28;5835;-73
2022/08/28 08:50:54;;;;;;;;;;;;;;;24.67;60.73;96840.16;4210584;28;6317;-72
2022/08/28 08:53:12;;;;;;;;;;;;;;;24.68;60.49;96839.88;4197282;28;5781;-72
2022/08/28 08:55:27;;;;;;;;;;;;;;;24.75;60.32;96831.47;4211712;28;5705;-72
2022/08/28 08:57:30;;;;;;;;;;;;;;;24.79;60.13;96840.63;4213878;28;5808;-71
2022/08/28 08:59:37;;;;;;;;;;;;;;;24.81;59.96;96843.06;4204682;28;6386;-72
2022/08/28 09:01:47;;;;;;;;;;;;;;;24.83;59.87;96841.69;4196510;28;5930;-72
2022/08/28 09:03:56;;;;;;;;;;;;;;;24.82;60.15;96837.38;4197861;28;5746;-72
2022/08/28 09:06:05;;;;;;;;;;;;;;;24.86;59.88;96840.31;4200057;28;7342;-72
2022/08/28 09:08:15;;;;;;;;;;;;;;;24.89;59.88;96843.25;4213464;28;5924;-72
2022/08/28 09:10:18;;;;;;;;;;;;;;;24.92;59.63;96845.41;4213413;28;5740;-72
2022/08/28 09:12:24;;;;;;;;;;;;;;;24.98;59.49;96843.44;4206808;28;5757;-73
2022/08/28 09:14:36;;;;;;;;;;;;;;;25.02;58.99;96849.09;4210924;28;5881;-71
2022/08/28 09:16:44;;;;;;;;;;;;;;;25.04;58.90;96849.66;4208979;28;5700;-72
2022/08/28 09:18:48;;;;;;;;;;;;;;;25.00;58.71;96851.25;4205579;28;6371;-71
2022/08/28 09:20:52;;;;;;;;;;;;;;;24.97;58.85;96848.03;4206393;28;5697;-72
2022/08/28 09:22:55;;;;;;;;;;;;;;;24.97;58.64;96852.66;4204827;28;5751;-72
2022/08/28 09:24:59;;;;;;;;;;;;;;;25.00;58.56;96853.97;4212509;28;5698;-73
2022/08/28 09:27:04;;;;;;;;;;;;;;;25.04;58.37;96850.47;4210805;28;5702;-73
2022/08/28 09:29:15;;;;;;;;;;;;;;;25.09;58.38;96855.00;4205057;28;5697;-73
2022/08/28 09:31:31;;;;;;;;;;;;;;;25.10;58.19;96851.22;4194148;28;5717;-73
2022/08/28 09:33:40;;;;;;;;;;;;;;;25.05;58.21;96849.38;4196181;28;5808;-69
2022/08/28 09:35:43;;;;;;;;;;;;;;;24.98;58.04;96848.84;4196495;28;5805;-75
2022/08/28 09:37:46;;;;;;;;;;;;;;;25.00;57.86;96853.97;4188660;28;5772;-75
2022/08/28 09:39:49;;;;;;;;;;;;;;;25.06;57.70;96853.69;4191885;28;5693;-75
2022/08/28 09:44:17;;;;;;;;;;;;;;;25.21;57.30;96858.13;4195235;28;7257;-74
2022/08/28 09:46:24;;;;;;;;;;;;;;;25.21;57.08;96853.53;4197076;28;5685;-75
2022/08/28 09:48:34;;;;;;;;;;;;;;;25.19;56.75;96863.03;4195850;28;6876;-75
2022/08/28 09:50:41;;;;;;;;;;;;;;;25.19;56.82;96860.31;4185375;28;5726;-77
2022/08/28 09:52:45;;;;;;;;;;;;;;;25.19;56.56;96855.72;4183901;28;5710;-80
2022/08/28 09:54:49;;;;;;;;;;;;;;;25.18;56.60;96864.94;4200023;28;5888;-79
2022/08/28 09:56:52;;;;;;;;;;;;;;;25.14;56.37;96863.06;4201876;28;5760;-78
2022/08/28 09:58:58;;;;;;;;;;;;;;;25.04;56.43;96868.59;4195330;28;6408;-79
2022/08/28 10:01:14;;;;;;;;;;;;;;;25.11;56.56;96855.53;4195063;28;6360;-80
2022/08/28 10:03:21;;;;;;;;;;;;;;;25.13;56.25;96869.56;4202985;28;5797;-78
2022/08/28 10:05:37;;;;;;;;;;;;;;;25.15;55.89;96865.50;4203103;28;5694;-79
2022/08/28 10:07:46;;;;;;;;;;;;;;;25.19;55.87;96871.97;4195037;28;5750;-78
2022/08/28 10:09:56;;;;;;;;;;;;;;;25.26;55.71;96866.22;4185553;28;6392;-79
2022/08/28 10:12:09;;;;;;;;;;;;;;;25.20;55.57;96865.44;4190730;28;5732;-80
2022/08/28 10:14:37;;;;;;;;;;;;;;;25.14;55.61;96863.91;4201698;28;5713;-80
2022/08/28 10:16:51;;;;;;;;;;;;;;;25.11;55.55;96858.22;4201675;28;5055;-80
2022/08/28 10:19:03;;;;;;;;;;;;;;;25.15;55.58;96864.72;4200689;28;5681;-78
2022/08/28 10:21:15;;;;;;;;;;;;;;;25.17;55.73;96859.81;4200125;28;5905;-79
2022/08/28 10:23:29;;;;;;;;;;;;;;;25.19;55.54;96857.63;4201623;28;5706;-66
2022/08/28 10:25:43;;;;;;;;;;;;;;;25.26;55.25;96855.41;4185141;28;5729;-66
2022/08/28 10:27:57;;;;;;;;;;;;;;;25.30;55.39;96850.22;4187306;28;5776;-74
2022/08/28 10:30:06;;;;;;;;;;;;;;;25.32;54.93;96853.44;4197758;28;5709;-69
2022/08/28 10:32:34;;;;;;;;;;;;;;;25.25;54.91;96854.56;4185511;28;5743;-69
2022/08/28 10:34:51;;;;;;;;;;;;;;;25.27;55.02;96857.00;4201280;28;5776;-69
2022/08/28 10:37:04;;;;;;;;;;;;;;;25.29;55.06;96849.41;4184604;28;6020;-71
2022/08/28 10:39:20;;;;;;;;;;;;;;;25.34;54.70;96852.06;4184803;28;5770;-71
2022/08/28 10:41:28;;;;;;;;;;;;;;;25.32;54.77;96853.44;4183647;28;5790;-67
2022/08/28 10:43:36;;;;;;;;;;;;;;;25.20;54.93;96859.22;4193537;28;5689;-67
2022/08/28 10:45:41;;;;;;;;;;;;;;;25.19;54.61;96853.03;4201335;28;5843;-67
2022/08/28 10:47:50;;;;;;;;;;;;;;;25.21;54.60;96860.84;4200714;28;5820;-66
2022/08/28 10:50:00;;;;;;;;;;;;;;;25.23;54.72;96855.94;4200798;28;5695;-67
2022/08/28 10:52:08;;;;;;;;;;;;;;;25.26;54.72;96847.28;4201006;28;5780;-70
2022/08/28 10:54:22;;;;;;;;;;;;;;;25.22;54.62;96854.34;4201230;28;7683;-73
2022/08/28 10:56:34;;;;;;;;;;;;;;;25.26;54.29;96850.00;4201288;28;5039;-74
2022/08/28 10:58:40;;;;;;;;;;;;;;;25.28;54.23;96853.22;4201333;28;5788;-74
2022/08/28 11:00:44;;;;;;;;;;;;;;;25.35;54.16;96853.66;4200957;28;5689;-74
2022/08/28 11:02:51;;;;;;;;;;;;;;;25.41;54.25;96862.56;4201095;28;5338;-74
2022/08/28 11:04:57;;;;;;;;;;;;;;;25.35;53.90;96845.53;4200748;28;5713;-73
2022/08/28 11:07:05;;;;;;;;;;;;;;;25.48;53.88;96855.72;4200638;28;5702;-73
2022/08/28 11:09:25;;;;;;;;;;;;;;;25.55;53.80;96850.75;4200940;28;7051;-73
2022/08/28 11:11:47;;;;;;;;;;;;;;;25.64;53.87;96853.63;4200723;28;5752;-73
2022/08/28 11:13:57;;;;;;;;;;;;;;;25.69;53.85;96855.47;4199353;28;5701;-73
2022/08/28 11:16:00;;;;;;;;;;;;;;;25.68;53.72;96857.38;4201025;28;5713;-73
2022/08/28 11:18:34;;;;;;;;;;;;;;;25.72;53.54;96855.75;4200655;28;5688;-73
2022/08/28 11:20:39;;;;;;;;;;;;;;;25.74;53.31;96858.97;4200767;28;5686;-73
2022/08/28 11:22:46;;;;;;;;;;;;;;;25.77;53.67;96860.28;4207452;28;5708;-72
2022/08/28 11:24:56;;;;;;;;;;;;;;;25.75;53.35;96857.06;4217678;28;5676;-73
2022/08/28 11:27:21;;;;;;;;;;;;;;;25.74;53.64;96850.03;4216165;28;5935;-73
2022/08/28 11:30:00;;;;;;;;;;;;;;;25.81;53.58;96855.91;4216957;28;5660;-73
2022/08/28 11:32:35;;;;;;;;;;;;;;;25.83;53.13;96856.44;4198923;28;5698;-73
2022/08/28 11:35:00;;;;;;;;;;;;;;;25.88;53.11;96855.56;4183692;28;5793;-73
2022/08/28 11:37:03;;;;;;;;;;;;;;;25.88;53.05;96850.94;4183936;28;5710;-73
2022/08/28 11:39:19;;;;;;;;;;;;;;;25.89;53.13;96849.84;4183963;28;5805;-73
2022/08/28 11:41:26;;;;;;;;;;;;;;;25.88;53.02;96852.84;4183705;28;5714;-72
2022/08/28 11:43:40;;;;;;;;;;;;;;;25.87;53.04;96849.34;4190906;28;5803;-70
2022/08/28 11:46:24;;;;;;;;;;;;;;;25.86;53.25;96853.16;4184024;28;5727;-75
2022/08/28 11:48:49;;;;;;;;;;;;;;;25.82;53.25;96854.78;4183765;28;6400;-74
2022/08/28 11:50:55;;;;;;;;;;;;;;;25.76;53.20;96847.84;4182451;28;5759;-75
2022/08/28 11:53:31;;;;;;;;;;;;;;;25.74;53.33;96847.34;4183316;28;5726;-75
2022/08/28 11:55:50;;;;;;;;;;;;;;;25.75;52.98;96848.94;4183719;28;5209;-75
2022/08/28 11:58:04;;;;;;;;;;;;;;;25.76;52.93;96850.56;4183737;28;5777;-75
2022/08/28 12:00:20;;;;;;;;;;;;;;;25.73;52.94;96845.72;4184560;28;5889;-75
2022/08/28 12:02:59;;;;;;;;;;;;;;;25.73;52.93;96843.00;4200168;28;5686;-66
2022/08/28 12:05:03;;;;;;;;;;;;;;;25.76;52.92;96837.00;4200059;28;5686;-66
2022/08/28 12:07:21;;;;;;;;;;;;;;;25.79;53.02;96831.00;4200218;28;5756;-66
2022/08/28 12:09:40;;;;;;;;;;;;;;;25.82;52.66;96835.84;4200081;28;5705;-74
2022/08/28 12:12:01;;;;;;;;;;;;;;;25.82;52.65;96833.13;4198887;28;5720;-75
2022/08/28 12:14:04;;;;;;;;;;;;;;;25.83;52.70;96837.47;4200199;28;5792;-75
2022/08/28 12:16:09;;;;;;;;;;;;;;;25.83;52.96;96843.69;4200290;28;7714;-74
2022/08/28 12:18:39;;;;;;;;;;;;;;;25.85;52.74;96843.41;4200091;28;5697;-74
2022/08/28 12:20:58;;;;;;;;;;;;;;;25.88;52.71;96842.00;4199650;28;5690;-74
2022/08/28 12:23:05;;;;;;;;;;;;;;;25.90;52.87;96848.75;4200225;28;6425;-74
2022/08/28 12:25:18;;;;;;;;;;;;;;;25.90;52.66;96848.75;4199246;28;5699;-74
2022/08/28 12:27:21;;;;;;;;;;;;;;;25.91;52.81;96842.22;4196428;28;6430;-74
2022/08/28 12:29:30;;;;;;;;;;;;;;;25.96;52.44;96839.47;4199398;28;5713;-75
2022/08/28 12:32:15;;;;;;;;;;;;;;;25.95;52.31;96843.28;4199654;28;5772;-74
2022/08/28 12:34:29;;;;;;;;;;;;;;;25.95;52.66;96843.28;4198463;28;5721;-73
2022/08/28 12:36:32;;;;;;;;;;;;;;;25.94;52.64;96843.59;4199126;28;5705;-74
2022/08/28 12:38:35;;;;;;;;;;;;;;;25.97;52.52;96843.78;4199725;28;5798;-73
2022/08/28 12:40:51;;;;;;;;;;;;;;;26.00;52.48;96832.38;4200079;28;5765;-74
2022/08/28 12:42:58;;;;;;;;;;;;;;;25.98;52.25;96831.06;4199995;28;5701;-74
2022/08/28 12:45:05;;;;;;;;;;;;;;;26.00;52.37;96823.44;4199816;28;5856;-74
2022/08/28 12:47:14;;;;;;;;;;;;;;;25.98;52.25;96834.56;4199745;28;5690;-74
2022/08/28 12:49:29;;;;;;;;;;;;;;;25.96;52.45;96820.53;4199640;28;5819;-73
2022/08/28 12:51:34;;;;;;;;;;;;;;;25.96;52.40;96825.94;4199921;28;5693;-73
2022/08/28 12:53:40;;;;;;;;;;;;;;;25.97;52.53;96827.53;4199910;28;5776;-73
2022/08/28 12:55:45;;;;;;;;;;;;;;;25.97;52.38;96822.13;4199850;28;5697;-73
2022/08/28 12:57:48;;;;;;;;;;;;;;;25.98;52.38;96826.44;4199892;28;5714;-73
2022/08/28 12:59:53;;;;;;;;;;;;;;;25.88;52.29;96823.06;4199874;28;5776;-73
2022/08/28 13:02:01;;;;;;;;;;;;;;;25.77;52.38;96828.59;4198132;28;5812;-73
2022/08/28 13:04:25;;;;;;;;;;;;;;;25.76;52.37;96821.56;4199480;28;5959;-72
2022/08/28 13:06:30;;;;;;;;;;;;;;;25.77;52.39;96819.66;4202433;28;5681;-72
2022/08/28 13:08:34;;;;;;;;;;;;;;;25.72;52.63;96817.03;4203478;28;5689;-73
2022/08/28 13:10:40;;;;;;;;;;;;;;;25.70;52.44;96813.78;4203135;28;5697;-73
2022/08/28 13:12:43;;;;;;;;;;;;;;;25.68;52.50;96813.25;4202940;28;6285;-73
2022/08/28 13:14:59;;;;;;;;;;;;;;;25.71;52.44;96812.69;4202582;28;5730;-73
2022/08/28 13:17:02;;;;;;;;;;;;;;;25.68;52.37;96813.25;4191817;28;7915;-73
2022/08/28 13:19:31;;;;;;;;;;;;;;;25.69;52.49;96804.03;4188734;28;5857;-73
2022/08/28 13:21:36;;;;;;;;;;;;;;;25.70;52.28;96805.66;4177318;28;5840;-73
2022/08/28 13:23:39;;;;;;;;;;;;;;;25.73;52.50;96795.09;4200174;28;5678;-73
2022/08/28 13:25:42;;;;;;;;;;;;;;;25.75;52.55;96798.31;4190208;28;5976;-73
2022/08/28 13:27:45;;;;;;;;;;;;;;;25.75;52.65;96798.31;4186048;28;5699;-73
2022/08/28 13:30:08;;;;;;;;;;;;;;;25.78;52.62;96794.19;4187416;28;5791;-74
2022/08/28 13:32:17;;;;;;;;;;;;;;;25.80;52.67;96790.09;4196287;28;5702;-74
2022/08/28 13:34:24;;;;;;;;;;;;;;;25.84;52.35;96790.34;4193907;28;5935;-74
2022/08/28 13:36:37;;;;;;;;;;;;;;;25.85;52.57;96791.97;4193774;28;5716;-74
2022/08/28 13:38:40;;;;;;;;;;;;;;;25.88;52.29;96794.06;4196199;28;5713;-74
2022/08/28 13:40:48;;;;;;;;;;;;;;;25.89;52.24;96786.75;4186353;28;5681;-74
2022/08/28 13:43:05;;;;;;;;;;;;;;;25.90;52.59;96786.47;4190714;28;5692;-74
2022/08/28 13:45:09;;;;;;;;;;;;;;;25.94;52.86;96784.00;4193282;28;5864;-73
2022/08/28 13:47:12;;;;;;;;;;;;;;;25.96;52.65;96792.63;4197121;28;5756;-73
2022/08/28 13:49:15;;;;;;;;;;;;;;;25.96;52.46;96781.78;4194170;28;5698;-72
2022/08/28 13:51:26;;;;;;;;;;;;;;;25.94;52.58;96782.09;4188859;28;5689;-72
2022/08/28 13:53:30;;;;;;;;;;;;;;;25.93;52.69;96783.16;4187209;28;5777;-73
2022/08/28 13:55:34;;;;;;;;;;;;;;;25.92;52.54;96775.34;4190737;28;5689;-73
2022/08/28 13:57:36;;;;;;;;;;;;;;;25.94;52.42;96771.25;4191897;28;5850;-73
2022/08/28 13:59:39;;;;;;;;;;;;;;;25.99;52.41;96767.66;4185990;28;5726;-73
2022/08/28 14:04:04;;;;;;;;;;;;;;;26.05;52.38;96767.31;4191677;28;5721;-74
2022/08/28 14:06:10;;;;;;;;;;;;;;;26.06;52.32;96765.41;4188700;28;5949;-73
2022/08/28 14:08:13;;;;;;;;;;;;;;;26.03;52.63;96765.97;4196229;28;5709;-73
2022/08/28 14:10:18;;;;;;;;;;;;;;;26.04;52.47;96757.53;4183504;28;5921;-72
2022/08/28 14:12:21;;;;;;;;;;;;;;;26.07;52.82;96769.72;4188672;28;5689;-73
2022/08/28 14:14:33;;;;;;;;;;;;;;;26.06;52.76;96763.50;4189115;28;6504;-72
2022/08/28 14:16:36;;;;;;;;;;;;;;;26.05;52.47;96763.78;4188995;28;5700;-66
2022/08/28 14:18:41;;;;;;;;;;;;;;;26.05;52.92;96758.38;4194649;28;5686;-69
2022/08/28 14:20:44;;;;;;;;;;;;;;;26.08;52.52;96763.19;4198201;28;5706;-71
2022/08/28 14:22:47;;;;;;;;;;;;;;;26.12;52.83;96762.31;4201263;28;5710;-67
2022/08/28 14:24:50;;;;;;;;;;;;;;;26.15;52.48;96757.41;4188630;28;5723;-71
2022/08/28 14:26:55;;;;;;;;;;;;;;;26.12;52.51;96759.59;4199450;28;5873;-73
2022/08/28 14:28:58;;;;;;;;;;;;;;;26.08;52.95;96753.16;4189009;28;5720;-66
2022/08/28 14:31:05;;;;;;;;;;;;;;;26.12;52.77;96753.38;4192300;28;5801;-67
2022/08/28 14:33:17;;;;;;;;;;;;;;;26.15;52.58;96746.56;4199432;28;5705;-74
2022/08/28 14:35:20;;;;;;;;;;;;;;;26.18;52.54;96746.00;4186059;28;7482;-79
2022/08/28 14:37:23;;;;;;;;;;;;;;;26.21;52.51;96748.91;4185438;28;5201;-70
2022/08/28 14:39:27;;;;;;;;;;;;;;;26.21;52.64;96745.41;4216515;28;5836;-71
2022/08/28 14:41:30;;;;;;;;;;;;;;;26.22;52.75;96742.41;4217767;28;5668;-66
2022/08/28 14:43:34;;;;;;;;;;;;;;;26.26;52.69;96748.03;4204762;28;7408;-71
2022/08/28 14:45:42;;;;;;;;;;;;;;;26.27;52.59;96736.06;4187513;28;5706;-71
2022/08/28 14:47:45;;;;;;;;;;;;;;;26.29;52.32;96742.03;4191342;28;5801;-70
2022/08/28 14:49:48;;;;;;;;;;;;;;;26.28;52.43;96741.22;4197467;28;5693;-71
2022/08/28 14:51:52;;;;;;;;;;;;;;;26.33;52.53;96738.44;4192015;28;5714;-72
2022/08/28 14:53:55;;;;;;;;;;;;;;;26.31;52.67;96729.00;4198001;28;5741;-72
2022/08/28 14:55:58;;;;;;;;;;;;;;;26.35;52.34;96740.84;4201081;28;5709;-72
2022/08/28 14:58:01;;;;;;;;;;;;;;;26.35;52.30;96738.94;4200744;28;5102;-72
2022/08/28 15:00:07;;;;;;;;;;;;;;;26.37;52.18;96738.66;4200550;28;5693;-70
2022/08/28 15:02:18;;;;;;;;;;;;;;;26.38;52.45;96730.22;4200731;28;5693;-73
2022/08/28 15:04:24;;;;;;;;;;;;;;;26.41;52.49;96728.84;4186712;28;5706;-74
2022/08/28 15:06:27;;;;;;;;;;;;;;;26.43;52.46;96732.06;4187584;28;5709;-73
2022/08/28 15:08:30;;;;;;;;;;;;;;;26.44;52.17;96730.16;4195499;28;5701;-71
2022/08/28 15:10:33;;;;;;;;;;;;;;;26.43;52.38;96732.06;4190994;28;5802;-72
2022/08/28 15:12:36;;;;;;;;;;;;;;;26.43;52.50;96726.66;4201083;28;5856;-71
2022/08/28 15:14:39;;;;;;;;;;;;;;;26.43;52.19;96729.34;4194738;28;5678;-70
2022/08/28 15:16:58;;;;;;;;;;;;;;;26.45;52.29;96732.56;4184255;28;5837;-69
2022/08/28 15:19:01;;;;;;;;;;;;;;;26.46;52.08;96728.75;4191806;28;5925;-70
2022/08/28 15:21:06;;;;;;;;;;;;;;;26.48;52.14;96734.69;4197294;28;5720;-72
2022/08/28 15:23:10;;;;;;;;;;;;;;;26.49;52.15;96733.59;4193972;28;5689;-70
2022/08/28 15:25:13;;;;;;;;;;;;;;;26.49;52.08;96730.06;4187537;28;5702;-69
2022/08/28 15:27:16;;;;;;;;;;;;;;;26.49;52.15;96730.88;4188298;28;5829;-71
2022/08/28 15:29:19;;;;;;;;;;;;;;;26.49;52.14;96721.94;4189965;28;5107;-71
2022/08/28 15:31:23;;;;;;;;;;;;;;;26.50;52.34;96726.25;4193201;28;5702;-71
2022/08/28 15:33:27;;;;;;;;;;;;;;;26.49;52.46;96725.44;4200047;28;6036;-72
2022/08/28 15:35:32;;;;;;;;;;;;;;;26.50;52.17;96720.81;4212415;28;5680;-69
2022/08/28 15:37:35;;;;;;;;;;;;;;;26.51;52.14;96723.28;4216991;28;5758;-73
2022/08/28 15:42:00;;;;;;;;;;;;;;;26.52;51.93;96730.31;4185043;28;5885;-73
2022/08/28 15:44:03;;;;;;;;;;;;;;;26.54;52.28;96728.09;4211411;28;5660;-74
2022/08/28 15:46:11;;;;;;;;;;;;;;;26.53;52.35;96721.06;4217240;28;5785;-72
2022/08/28 15:48:14;;;;;;;;;;;;;;;26.54;52.18;96725.38;4188857;28;6466;-73
2022/08/28 15:50:19;;;;;;;;;;;;;;;26.54;52.00;96727.28;4199709;28;5725;-70
2022/08/28 15:52:23;;;;;;;;;;;;;;;26.55;51.95;96724.28;4200187;28;5773;-70
2022/08/28 15:54:26;;;;;;;;;;;;;;;26.55;52.10;96728.91;4186152;28;5817;-69
2022/08/28 15:56:29;;;;;;;;;;;;;;;26.53;52.14;96731.09;4186367;28;5714;-74
2022/08/28 15:58:32;;;;;;;;;;;;;;;26.51;52.17;96725.97;4199394;28;5746;-74
2022/08/28 16:00:35;;;;;;;;;;;;;;;26.51;51.85;96728.69;4200179;28;5772;-74
2022/08/28 16:02:38;;;;;;;;;;;;;;;26.51;52.41;96727.88;4199928;28;5784;-73
2022/08/28 16:04:41;;;;;;;;;;;;;;;26.51;52.12;96727.88;4199667;28;5681;-68
2022/08/28 16:06:45;;;;;;;;;;;;;;;26.50;51.83;96721.63;4183739;28;5836;-69
2022/08/28 16:08:49;;;;;;;;;;;;;;;26.50;52.19;96731.69;4187633;28;5681;-73
2022/08/28 16:10:53;;;;;;;;;;;;;;;26.49;51.88;96736.28;4187677;28;5723;-71
2022/08/28 16:12:56;;;;;;;;;;;;;;;26.48;51.85;96728.47;4187696;28;5773;-71
2022/08/28 16:14:59;;;;;;;;;;;;;;;26.47;52.00;96732.28;4198335;28;6403;-70
2022/08/28 16:17:02;;;;;;;;;;;;;;;26.47;52.10;96733.06;4195424;28;6390;-73
2022/08/28 16:19:12;;;;;;;;;;;;;;;26.45;52.08;96729.06;4194286;28;5701;-68
2022/08/28 16:21:16;;;;;;;;;;;;;;;26.44;51.96;96733.69;4200181;28;5737;-74
2022/08/28 16:23:20;;;;;;;;;;;;;;;26.42;52.10;96729.66;4200792;28;5682;-81
2022/08/28 16:25:23;;;;;;;;;;;;;;;26.39;52.14;96726.44;4200948;28;5710;-77
2022/08/28 16:27:26;;;;;;;;;;;;;;;26.39;51.88;96726.44;4200460;28;5860;-79
2022/08/28 16:29:29;;;;;;;;;;;;;;;26.38;52.17;96724.00;4188626;28;5714;-72
2022/08/28 16:31:33;;;;;;;;;;;;;;;26.37;52.04;96722.41;4197957;28;5706;-73
2022/08/28 16:33:35;;;;;;;;;;;;;;;26.37;52.14;96725.09;4190275;28;5841;-73
2022/08/28 16:35:40;;;;;;;;;;;;;;;26.35;52.09;96721.88;4187192;28;5719;-74
2022/08/28 16:37:57;;;;;;;;;;;;;;;26.32;52.05;96719.75;4195019;28;5885;-73
2022/08/28 16:40:02;;;;;;;;;;;;;;;26.31;52.05;96724.38;4190967;28;5715;-73
2022/08/28 16:42:05;;;;;;;;;;;;;;;26.30;52.34;96719.25;4200678;28;5788;-70
2022/08/28 16:44:08;;;;;;;;;;;;;;;26.30;52.06;96727.38;4199740;28;5845;-71
2022/08/28 16:46:17;;;;;;;;;;;;;;;26.27;52.10;96725.25;4201828;28;5687;-78
2022/08/28 16:48:20;;;;;;;;;;;;;;;26.27;52.16;96722.53;4186010;28;5742;-70
2022/08/28 16:50:25;;;;;;;;;;;;;;;26.25;52.18;96725.53;4186344;28;5900;-70
2022/08/28 16:52:28;;;;;;;;;;;;;;;26.24;52.19;96725.84;4191721;28;5833;-71
2022/08/28 16:54:31;;;;;;;;;;;;;;;26.23;52.04;96721.53;4194584;28;6710;-71
2022/08/28 16:56:36;;;;;;;;;;;;;;;26.24;52.07;96731.25;4193013;28;5705;-71
2022/08/28 16:58:40;;;;;;;;;;;;;;;26.22;52.33;96731.56;4191333;28;5881;-71
2022/08/28 17:00:43;;;;;;;;;;;;;;;26.22;52.41;96730.75;4189887;28;5735;-72
2022/08/28 17:02:56;;;;;;;;;;;;;;;26.21;52.09;96729.94;4198478;28;5792;-71
2022/08/28 17:05:00;;;;;;;;;;;;;;;26.19;52.00;96726.72;4196257;28;5824;-71
2022/08/28 17:07:03;;;;;;;;;;;;;;;26.19;52.07;96726.72;4191187;28;5715;-71
2022/08/28 17:09:06;;;;;;;;;;;;;;;26.18;52.46;96724.31;4195839;28;5809;-70
2022/08/28 17:11:10;;;;;;;;;;;;;;;26.17;52.07;96723.53;4192513;28;6666;-78
2022/08/28 17:13:15;;;;;;;;;;;;;;;26.17;52.40;96722.72;4192749;28;6468;-76
2022/08/28 17:15:18;;;;;;;;;;;;;;;26.16;52.37;96721.88;4185581;28;5706;-73
2022/08/28 17:17:21;;;;;;;;;;;;;;;26.15;52.45;96716.75;4190875;28;5859;-72
2022/08/28 17:19:25;;;;;;;;;;;;;;;26.13;52.17;96722.47;4193888;28;5847;-73
2022/08/28 17:23:48;;;;;;;;;;;;;;;26.12;52.18;96724.38;4196405;28;5718;-74
2022/08/28 17:25:51;;;;;;;;;;;;;;;26.11;52.28;96722.78;4190100;28;5689;-68
2022/08/28 17:27:55;;;;;;;;;;;;;;;26.10;52.09;96729.28;4187622;28;5674;-70
2022/08/28 17:30:00;;;;;;;;;;;;;;;26.10;51.98;96726.59;4187653;28;5809;-70
2022/08/28 17:32:04;;;;;;;;;;;;;;;26.10;52.39;96725.78;4192472;28;5718;-70
2022/08/28 17:34:07;;;;;;;;;;;;;;;26.10;52.23;96725.78;4187173;28;6644;-70
2022/08/28 17:36:14;;;;;;;;;;;;;;;26.07;52.27;96729.88;4185683;28;5880;-68
2022/08/28 17:38:36;;;;;;;;;;;;;;;26.08;52.18;96730.69;4184845;28;5858;-68
2022/08/28 17:40:39;;;;;;;;;;;;;;;26.09;51.99;96735.81;4193122;28;5694;-69
2022/08/28 17:42:44;;;;;;;;;;;;;;;26.09;52.08;96733.09;4189557;28;5833;-72
2022/08/28 17:44:47;;;;;;;;;;;;;;;26.07;52.16;96735.31;4184153;28;6709;-70
2022/08/28 17:46:51;;;;;;;;;;;;;;;26.06;52.34;96738.31;4187601;28;6399;-71
2022/08/28 17:48:54;;;;;;;;;;;;;;;26.05;51.99;96734.81;4186774;28;5702;-72
2022/08/28 17:51:00;;;;;;;;;;;;;;;26.05;52.01;96734.00;4181768;28;5115;-73
2022/08/28 17:53:03;;;;;;;;;;;;;;;26.02;52.13;96740.78;4184101;28;5730;-72
2022/08/28 17:55:07;;;;;;;;;;;;;;;26.04;52.19;96751.31;4189497;28;5881;-69
2022/08/28 17:57:10;;;;;;;;;;;;;;;26.04;52.43;96752.13;4186958;28;5717;-70
2022/08/28 17:59:15;;;;;;;;;;;;;;;26.02;52.25;96746.19;4186331;28;5835;-71
2022/08/28 18:01:19;;;;;;;;;;;;;;;26.03;52.11;96760.53;4189510;28;5743;-70
2022/08/28 18:03:23;;;;;;;;;;;;;;;26.02;52.14;96757.03;4188152;28;6061;-70
2022/08/28 18:05:26;;;;;;;;;;;;;;;26.00;52.30;96761.94;4183660;28;5818;-70
2022/08/28 18:07:29;;;;;;;;;;;;;;;25.98;52.10;96772.28;4186422;28;5797;-69
2022/08/28 18:09:32;;;;;;;;;;;;;;;25.98;52.51;96763.34;4185912;28;5712;-71
2022/08/28 18:11:36;;;;;;;;;;;;;;;25.97;52.06;96778.78;4191922;28;5067;-74
2022/08/28 18:13:39;;;;;;;;;;;;;;;25.96;52.16;96770.97;4184844;28;5141;-71
2022/08/28 18:15:42;;;;;;;;;;;;;;;25.95;52.33;96767.44;4187829;28;5709;-72
2022/08/28 18:17:52;;;;;;;;;;;;;;;25.95;52.10;96775.56;4188234;28;5785;-71
2022/08/28 18:19:58;;;;;;;;;;;;;;;25.95;52.12;96778.28;4192310;28;5726;-72
2022/08/28 18:22:01;;;;;;;;;;;;;;;25.96;52.30;96779.88;4196457;28;5847;-72
2022/08/28 18:24:07;;;;;;;;;;;;;;;25.96;52.12;96776.38;4186017;28;5925;-72
2022/08/28 18:26:10;;;;;;;;;;;;;;;25.96;52.36;96771.75;4185378;28;5832;-69
2022/08/28 18:28:15;;;;;;;;;;;;;;;25.95;52.49;96770.16;4182640;28;5719;-74
2022/08/28 18:30:24;;;;;;;;;;;;;;;25.96;52.12;96768.25;4187013;28;5796;-75
2022/08/28 18:32:27;;;;;;;;;;;;;;;25.97;52.25;96777.97;4187947;28;5841;-76
2022/08/28 18:34:30;;;;;;;;;;;;;;;25.95;52.19;96783.69;4190994;28;5915;-75
2022/08/28 18:36:35;;;;;;;;;;;;;;;25.95;52.09;96783.69;4185886;28;5722;-77
2022/08/28 18:38:38;;;;;;;;;;;;;;;25.94;52.02;96779.38;4186213;28;5849;-78
2022/08/28 18:40:42;;;;;;;;;;;;;;;25.95;51.86;96786.41;4189788;28;5827;-74
2022/08/28 18:42:45;;;;;;;;;;;;;;;25.94;51.86;96784.81;4192621;28;5863;-74
2022/08/28 18:44:48;;;;;;;;;;;;;;;25.92;51.56;96792.38;4187497;28;5717;-74
2022/08/28 18:46:51;;;;;;;;;;;;;;;25.90;51.79;96785.66;4185575;28;5714;-75
2022/08/28 18:48:54;;;;;;;;;;;;;;;25.91;51.43;96784.56;4192760;28;5682;-73
2022/08/28 18:50:57;;;;;;;;;;;;;;;25.90;51.19;96783.75;4186865;28;5824;-72
2022/08/28 18:53:01;;;;;;;;;;;;;;;25.92;51.10;96795.09;4190988;28;5833;-73
2022/08/28 18:55:07;;;;;;;;;;;;;;;25.94;51.01;96795.63;4186465;28;5705;-74
2022/08/28 18:57:10;;;;;;;;;;;;;;;25.93;50.87;96804.81;4187906;28;5818;-73
2022/08/28 18:59:13;;;;;;;;;;;;;;;25.94;50.83;96802.94;4183759;28;5718;-71
2022/08/28 19:01:17;;;;;;;;;;;;;;;25.94;50.97;96806.47;4190094;28;5854;-72
2022/08/28 19:03:20;;;;;;;;;;;;;;;25.95;50.76;96818.91;4185352;28;5918;-72
2022/08/28 19:05:23;;;;;;;;;;;;;;;25.95;50.71;96816.19;4182620;28;5714;-74
2022/08/28 19:07:26;;;;;;;;;;;;;;;25.95;50.48;96818.91;4183376;28;5794;-72
2022/08/28 19:09:30;;;;;;;;;;;;;;;25.96;50.59;96814.28;4184479;28;5857;-75
2022/08/28 19:11:36;;;;;;;;;;;;;;;25.95;50.45;96821.63;4187537;28;5784;-74
2022/08/28 19:13:42;;;;;;;;;;;;;;;25.95;50.73;96827.03;4187156;28;5701;-80
2022/08/28 19:15:49;;;;;;;;;;;;;;;25.92;50.82;96824.88;4193467;28;7409;-72
2022/08/28 19:17:52;;;;;;;;;;;;;;;25.95;50.62;96818.09;4187191;28;5703;-71
2022/08/28 19:19:56;;;;;;;;;;;;;;;25.95;50.89;96818.09;4191679;28;5681;-71
2022/08/28 19:22:00;;;;;;;;;;;;;;;25.95;50.67;96831.66;4189382;28;5895;-71
2022/08/28 19:24:03;;;;;;;;;;;;;;;25.93;50.60;96815.66;4189897;28;5824;-71
2022/08/28 19:26:08;;;;;;;;;;;;;;;25.93;50.86;96821.06;4183055;28;5809;-71
2022/08/28 19:28:11;;;;;;;;;;;;;;;25.94;50.41;96828.13;4183145;28;5844;-71
2022/08/28 19:30:17;;;;;;;;;;;;;;;25.94;50.89;96844.38;4186490;28;5932;-71
2022/08/28 19:32:21;;;;;;;;;;;;;;;25.93;50.48;96842.75;4187476;28;5710;-81
2022/08/28 19:34:28;;;;;;;;;;;;;;;25.92;50.78;96841.13;4187343;28;5734;-82
2022/08/28 19:36:31;;;;;;;;;;;;;;;25.90;50.41;96843.34;4190662;28;5722;-81
2022/08/28 19:38:34;;;;;;;;;;;;;;;25.92;50.49;96851.16;4189159;28;5742;-77
2022/08/28 19:40:38;;;;;;;;;;;;;;;25.91;50.75;96844.94;4187311;28;5702;-76
2022/08/28 19:42:42;;;;;;;;;;;;;;;25.89;50.71;96844.44;4195894;28;5888;-74
2022/08/28 19:44:45;;;;;;;;;;;;;;;25.88;50.55;96842.00;4190208;28;5714;-74
2022/08/28 19:47:01;;;;;;;;;;;;;;;25.86;50.58;96853.16;4194762;28;5781;-73
2022/08/28 19:49:05;;;;;;;;;;;;;;;25.86;50.59;96853.16;4188436;28;5705;-73
2022/08/28 19:51:11;;;;;;;;;;;;;;;25.86;50.33;96866.69;4188615;28;5770;-76